Tropical Cyclones
[Index]
Main Index Home Page Stock Weather Photos Extreme Storms Discussion Storm News and Storm Chasing Reports Tropical Cyclones / Hurricanes / Typhoons Weather Data and Links Wild Fires / Bushfires Weather Observation Techniques Weather Picture Catalogue Tornado Pictures and Reports Stock Video Footage and DVDs for sale
Season 1998-1999 Tropical Cyclone VANCE Track Map
Season 1998-1999 Summaries: [BoM-AU] [JTWC-AU] [JTWC-SIO] [JTWC-SPAC] [JTWC-SH]
<<- Previous TC | JTWC 1998-1999 Season | Next TC ->>

click for intensity scale information  Lat/long Grid: Show Hide

 Date Labels: Show Hide

Joint Typhoon Warning Centre Cyclone Data

Name: VANCE

16 Mar 1999 00:00 UTC to 23 Mar 1999 12:00 UTC

    date/time    lat    long     hPa   cat  kts
1999-03-16 00   11.0   130.2                  20          
1999-03-16 06   11.1   131.6                  25          
1999-03-16 12   11.5   132.1                  25          
1999-03-16 18   12.0   132.3                  25          
1999-03-17 00   12.7   131.0                  25          
1999-03-17 06   12.9   129.8                  25          
1999-03-17 12   12.6   128.2                  30          
1999-03-17 18   12.5   127.5                  30          
1999-03-18 00   12.7   127.1                  35          
1999-03-18 06   12.5   125.5            1     40          
1999-03-18 12   12.5   124.3                  35          
1999-03-18 18   13.0   122.9            2     55          
1999-03-19 00   13.4   122.0            2     65          
1999-03-19 06   13.8   120.7            3     75          
1999-03-19 12   14.3   119.6            3     80          
1999-03-19 18   14.7   118.9            3     90          
1999-03-20 00   15.4   117.8            3     90          
1999-03-20 06   15.9   117.2            4    105          
1999-03-20 12   16.6   116.7            4    120          
1999-03-20 18   17.3   116.2            5    125          
1999-03-21 00   17.9   115.7            5    125          
1999-03-21 06   18.6   114.9            5    125          
1999-03-21 12   19.3   114.6            5    125          
1999-03-21 18   20.2   114.4            5    125          
1999-03-22 00   21.6   114.3            5    125          
1999-03-22 06   23.0   114.3            4    100          
1999-03-22 12   24.9   115.0            2     65          
1999-03-22 18   26.5   116.4            2     55          
1999-03-23 00   27.6   118.7            1     40          
1999-03-23 06   29.0   120.7                  30          
1999-03-23 12   30.6   123.0                  25          
Winds are 1-min average.

Tropical cyclone tracks developed by Michael Bath using data from the Joint Typhoon Warning Centre Best Tracks and Google Maps.


[Australian Severe Weather index] [Copyright Notice] [Email Contacts] [Search This Site] [Privacy Policy]
Document: tropical_cyclone_vance.htm Updated: 18 September 2016